createdAt,value
2019-02-19T00:00:08.661Z,31.00
2019-02-19T00:02:39.153Z,32.00
2019-02-19T00:05:09.433Z,33.57
2019-02-19T00:07:39.737Z,37.37
2019-02-19T00:10:10.161Z,40.57
2019-02-19T00:12:40.772Z,36.23
2019-02-19T00:15:11.399Z,29.87
2019-02-19T00:17:42.073Z,32.33
2019-02-19T00:20:12.564Z,34.37
2019-02-19T00:22:43.109Z,33.80
2019-02-19T00:25:13.453Z,36.00
2019-02-19T00:27:43.857Z,35.90
2019-02-19T00:30:14.134Z,34.83
2019-02-19T00:32:44.621Z,32.20
2019-02-19T00:35:15.051Z,35.00
2019-02-19T00:37:45.524Z,34.67
2019-02-19T00:40:15.805Z,32.67
2019-02-19T00:42:46.314Z,34.10
2019-02-19T00:45:17.123Z,34.67
2019-02-19T00:47:47.616Z,34.90
2019-02-19T00:50:17.917Z,34.20
2019-02-19T00:52:48.333Z,32.17
2019-02-19T00:55:18.732Z,35.13
2019-02-19T00:57:48.963Z,34.40
2019-02-19T01:00:19.518Z,37.40
2019-02-19T01:02:49.820Z,37.10
2019-02-19T01:05:20.176Z,31.33
2019-02-19T01:07:50.844Z,37.23
2019-02-19T01:10:21.410Z,33.73
2019-02-19T01:12:51.910Z,36.50
2019-02-19T01:15:25.465Z,34.17
2019-02-19T01:17:54.668Z,35.23
2019-02-19T01:20:24.894Z,36.43
2019-02-19T01:22:55.197Z,36.33
2019-02-19T01:25:25.838Z,29.53
2019-02-19T01:27:56.377Z,33.23
2019-02-19T01:30:26.857Z,30.50
2019-02-19T01:32:57.533Z,33.00
2019-02-19T01:35:27.821Z,33.83
2019-02-19T01:37:58.261Z,32.47
2019-02-19T01:40:28.553Z,32.20
2019-02-19T01:42:58.845Z,33.77
2019-02-19T01:45:34.005Z,30.27
2019-02-19T01:48:01.285Z,30.30
2019-02-19T01:50:31.526Z,35.40
2019-02-19T01:53:02.099Z,33.60
2019-02-19T01:55:32.632Z,33.97
2019-02-19T01:58:02.776Z,33.80
2019-02-19T02:00:33.213Z,36.43
2019-02-19T02:03:03.681Z,32.87
2019-02-19T02:05:34.089Z,31.07
2019-02-19T02:08:04.741Z,37.37
2019-02-19T02:10:35.292Z,33.20
2019-02-19T02:13:05.532Z,32.50
2019-02-19T02:15:42.531Z,35.00
2019-02-19T02:18:08.022Z,37.50
2019-02-19T02:20:40.301Z,37.63
2019-02-19T02:23:10.673Z,34.23
2019-02-19T02:25:41.482Z,36.67
2019-02-19T02:28:12.102Z,38.43
2019-02-19T02:30:42.400Z,34.97
2019-02-19T02:33:12.965Z,34.90
2019-02-19T02:35:43.388Z,39.53
2019-02-19T02:38:13.876Z,39.53
2019-02-19T02:40:44.025Z,39.17
2019-02-19T02:43:14.446Z,38.83
2019-02-19T02:45:52.709Z,44.27
2019-02-19T02:48:16.930Z,42.53
2019-02-19T02:50:47.425Z,41.93
2019-02-19T02:53:17.815Z,35.13
2019-02-19T02:55:48.313Z,37.70
2019-02-19T02:58:18.713Z,39.87
2019-02-19T03:00:49.029Z,41.50
2019-02-19T03:03:19.601Z,48.80
2019-02-19T03:05:59.278Z,40.13
2019-02-19T03:08:29.677Z,42.07
2019-02-19T03:11:00.144Z,43.37
2019-02-19T03:13:30.462Z,47.00
2019-02-19T03:16:02.684Z,45.77
2019-02-19T03:18:33.045Z,39.60
2019-02-19T03:21:03.552Z,42.03
2019-02-19T03:23:33.851Z,41.90
2019-02-19T03:26:04.133Z,42.33
2019-02-19T03:28:34.817Z,44.83
2019-02-19T03:31:05.203Z,42.60
2019-02-19T03:33:35.602Z,50.00
2019-02-19T03:36:06.069Z,54.73
2019-02-19T03:38:36.550Z,52.23
2019-02-19T03:41:07.233Z,55.37
2019-02-19T03:43:37.786Z,52.30
2019-02-19T03:46:12.012Z,53.93
2019-02-19T03:48:40.576Z,46.23
2019-02-19T03:51:11.491Z,53.57
2019-02-19T03:53:42.021Z,50.23
2019-02-19T03:56:12.645Z,47.17
2019-02-19T03:58:43.067Z,47.63
2019-02-19T04:01:13.506Z,54.97
2019-02-19T04:03:45.526Z,49.17
2019-02-19T04:06:15.978Z,48.40
2019-02-19T04:08:46.374Z,50.10
2019-02-19T04:11:16.877Z,45.93
2019-02-19T04:13:47.377Z,46.20
2019-02-19T04:16:21.231Z,48.23
2019-02-19T04:18:49.624Z,52.27
2019-02-19T04:21:20.303Z,49.20
2019-02-19T04:23:50.958Z,46.53
2019-02-19T04:26:21.557Z,53.00
2019-02-19T04:28:51.944Z,52.33
2019-02-19T04:31:22.509Z,44.90
2019-02-19T04:33:52.985Z,50.70
2019-02-19T04:36:23.346Z,47.03
2019-02-19T04:38:53.854Z,47.33
2019-02-19T04:41:24.133Z,51.20
2019-02-19T04:43:54.630Z,53.40
2019-02-19T04:46:31.651Z,51.07
2019-02-19T04:48:56.939Z,50.40
2019-02-19T04:51:27.437Z,50.87
2019-02-19T04:53:57.928Z,50.73
2019-02-19T04:56:28.218Z,50.17
2019-02-19T04:58:58.793Z,44.90
2019-02-19T05:01:29.430Z,41.63
2019-02-19T05:03:59.934Z,45.13
2019-02-19T05:06:30.319Z,43.23
2019-02-19T05:09:00.878Z,52.63
2019-02-19T05:11:31.378Z,46.13
2019-02-19T05:14:01.959Z,50.63
2019-02-19T05:16:40.449Z,49.00
2019-02-19T05:19:04.750Z,53.80
2019-02-19T05:21:35.253Z,54.73
2019-02-19T05:24:05.890Z,47.27
2019-02-19T05:26:36.576Z,42.60
2019-02-19T05:29:06.961Z,49.80
2019-02-19T05:31:39.473Z,46.57
2019-02-19T05:34:09.885Z,43.07
2019-02-19T05:36:40.463Z,52.23
2019-02-19T05:39:11.086Z,47.87
2019-02-19T05:41:41.661Z,51.40
2019-02-19T05:44:12.151Z,48.67
2019-02-19T05:46:49.641Z,56.73
2019-02-19T05:49:14.801Z,45.47
2019-02-19T05:51:45.298Z,45.00
2019-02-19T05:54:15.521Z,50.33
2019-02-19T05:56:45.945Z,46.67
2019-02-19T05:59:16.243Z,52.77
2019-02-19T06:01:46.605Z,51.33
2019-02-19T06:04:17.081Z,46.93
2019-02-19T06:06:47.639Z,50.20
2019-02-19T06:09:18.222Z,43.00
2019-02-19T06:11:48.775Z,46.47
2019-02-19T06:14:19.387Z,47.03
2019-02-19T06:16:58.107Z,49.70
2019-02-19T06:19:22.037Z,45.57
2019-02-19T06:21:52.447Z,46.63
2019-02-19T06:24:22.897Z,46.40
2019-02-19T06:26:53.315Z,46.87
2019-02-19T06:29:23.831Z,51.90
2019-02-19T06:31:54.466Z,51.83
2019-02-19T06:34:24.868Z,55.57
2019-02-19T06:36:55.420Z,50.57
2019-02-19T06:39:25.924Z,54.60
2019-02-19T06:41:56.205Z,59.93
2019-02-19T06:44:26.711Z,53.60
2019-02-19T06:46:57.384Z,52.87
2019-02-19T06:49:27.772Z,51.63
2019-02-19T06:51:58.096Z,48.10
2019-02-19T06:54:28.585Z,54.03
2019-02-19T06:56:59.061Z,50.07
2019-02-19T06:59:29.455Z,56.17
2019-02-19T07:02:04.349Z,53.37
2019-02-19T07:04:36.289Z,58.53
2019-02-19T07:07:07.157Z,55.43
2019-02-19T07:09:37.557Z,52.13
2019-02-19T07:12:08.089Z,52.97
2019-02-19T07:14:38.476Z,45.00
2019-02-19T07:17:15.434Z,55.80
2019-02-19T07:19:41.497Z,58.97
2019-02-19T07:22:12.063Z,53.73
2019-02-19T07:24:42.554Z,62.27
2019-02-19T07:27:13.125Z,59.93
2019-02-19T07:29:43.729Z,51.93
2019-02-19T07:32:14.904Z,64.13
2019-02-19T07:34:45.388Z,58.30
2019-02-19T07:37:15.820Z,50.67
2019-02-19T07:39:46.321Z,56.90
2019-02-19T07:42:16.805Z,51.83
2019-02-19T07:44:47.469Z,57.63
2019-02-19T07:47:24.367Z,55.83
2019-02-19T07:49:50.296Z,54.30
2019-02-19T07:52:20.526Z,55.37
2019-02-19T07:54:51.395Z,57.00
2019-02-19T07:57:21.884Z,54.30
2019-02-19T07:59:52.195Z,51.90
2019-02-19T08:02:22.689Z,47.47
2019-02-19T08:04:53.127Z,54.07
2019-02-19T08:07:23.715Z,49.50
2019-02-19T08:09:54.113Z,52.07
2019-02-19T08:12:26.245Z,52.93
2019-02-19T08:14:56.881Z,47.60
2019-02-19T08:17:33.087Z,52.57
2019-02-19T08:19:59.509Z,48.43
2019-02-19T08:22:30.009Z,52.93
2019-02-19T08:25:00.436Z,56.37
2019-02-19T08:27:30.852Z,50.10
2019-02-19T08:30:01.285Z,57.60
2019-02-19T08:32:31.775Z,52.20
2019-02-19T08:35:02.374Z,52.53
2019-02-19T08:37:32.598Z,46.90
2019-02-19T08:40:03.170Z,50.30
2019-02-19T08:42:33.655Z,53.30
2019-02-19T08:45:05.233Z,48.50
2019-02-19T08:47:42.292Z,49.70
2019-02-19T08:50:08.564Z,45.63
2019-02-19T08:52:39.133Z,51.50
2019-02-19T08:55:09.821Z,44.73
2019-02-19T08:57:40.211Z,49.53
2019-02-19T09:00:11.953Z,49.80
2019-02-19T09:02:42.315Z,51.47
2019-02-19T09:05:12.998Z,48.10
2019-02-19T09:07:43.378Z,51.80
2019-02-19T09:10:14.653Z,46.93
2019-02-19T09:12:45.042Z,46.13
2019-02-19T09:15:15.529Z,46.40
2019-02-19T09:17:51.921Z,42.90
2019-02-19T09:20:18.003Z,44.53
2019-02-19T09:22:48.501Z,43.67
2019-02-19T09:25:19.169Z,43.53
2019-02-19T09:27:49.676Z,42.57
2019-02-19T09:30:20.182Z,44.27
2019-02-19T09:32:50.752Z,45.07
2019-02-19T09:35:21.037Z,38.97
2019-02-19T09:37:51.574Z,47.70
2019-02-19T09:40:22.272Z,40.80
2019-02-19T09:42:52.692Z,40.47
2019-02-19T09:45:23.266Z,39.87
2019-02-19T09:48:00.970Z,38.97
2019-02-19T09:50:25.952Z,40.47
2019-02-19T09:53:00.011Z,34.27
2019-02-19T09:55:28.493Z,36.73
2019-02-19T09:57:59.080Z,43.63
2019-02-19T10:00:29.705Z,35.40
2019-02-19T10:03:00.295Z,40.97
2019-02-19T10:05:30.649Z,41.73
2019-02-19T10:08:01.390Z,40.43
2019-02-19T10:10:31.891Z,37.30
2019-02-19T10:13:02.439Z,33.30
2019-02-19T10:15:32.937Z,35.53
2019-02-19T10:18:10.065Z,32.93
2019-02-19T10:20:35.329Z,33.60
2019-02-19T10:23:05.661Z,32.13
2019-02-19T10:25:36.150Z,33.37
2019-02-19T10:28:06.589Z,28.83
2019-02-19T10:30:37.168Z,34.07
2019-02-19T10:33:07.773Z,27.07
2019-02-19T10:35:38.258Z,29.03
2019-02-19T10:38:08.829Z,30.67
2019-02-19T10:40:39.337Z,30.30
2019-02-19T10:43:09.617Z,30.90
2019-02-19T10:45:40.133Z,30.07
2019-02-19T10:48:18.620Z,29.13
2019-02-19T10:50:42.609Z,28.77
2019-02-19T10:53:12.821Z,29.27
2019-02-19T10:55:43.193Z,29.53
2019-02-19T10:58:22.280Z,26.80
2019-02-19T11:00:45.945Z,25.63
2019-02-19T11:03:16.229Z,26.57
2019-02-19T11:05:46.721Z,27.43
2019-02-19T11:08:17.007Z,27.90
2019-02-19T11:10:47.648Z,24.63
2019-02-19T11:13:18.057Z,25.10
2019-02-19T11:15:48.487Z,28.73
2019-02-19T11:18:27.826Z,23.30
2019-02-19T11:20:51.102Z,30.57
2019-02-19T11:23:21.756Z,25.10
2019-02-19T11:25:52.341Z,26.73
2019-02-19T11:28:22.650Z,23.77
2019-02-19T11:30:53.151Z,25.27
2019-02-19T11:33:23.680Z,25.43
2019-02-19T11:35:54.847Z,28.43
2019-02-19T11:38:25.623Z,25.83
2019-02-19T11:40:55.920Z,27.67
2019-02-19T11:43:26.321Z,23.43
2019-02-19T11:45:56.554Z,25.10
2019-02-19T11:48:26.995Z,22.60
2019-02-19T11:50:57.445Z,25.40
2019-02-19T11:53:27.741Z,23.37
2019-02-19T11:55:58.149Z,22.03
2019-02-19T11:58:28.725Z,29.47
2019-02-19T12:00:59.337Z,21.97
2019-02-19T12:03:29.752Z,27.70
2019-02-19T12:06:00.062Z,25.23
2019-02-19T12:08:38.645Z,22.90
2019-02-19T12:11:02.977Z,21.70
2019-02-19T12:13:33.900Z,24.33
2019-02-19T12:16:04.304Z,24.27
2019-02-19T12:18:34.591Z,26.97
2019-02-19T12:21:05.090Z,25.20
2019-02-19T12:23:35.424Z,22.50
2019-02-19T12:26:05.805Z,25.30
2019-02-19T12:28:36.235Z,23.30
2019-02-19T12:31:06.801Z,26.60
2019-02-19T12:33:37.169Z,19.80
2019-02-19T12:36:07.985Z,23.30
2019-02-19T12:38:38.528Z,21.13
2019-02-19T12:41:09.092Z,25.30
2019-02-19T12:43:39.579Z,18.90
2019-02-19T12:46:10.081Z,21.30
2019-02-19T12:48:40.597Z,22.43
2019-02-19T12:51:11.190Z,20.57
2019-02-19T12:53:42.218Z,21.90
2019-02-19T12:56:12.605Z,20.90
2019-02-19T12:58:43.176Z,25.03
2019-02-19T13:01:13.745Z,24.63
2019-02-19T13:03:44.101Z,27.73
2019-02-19T13:06:14.309Z,25.93
2019-02-19T13:08:44.551Z,27.93
2019-02-19T13:11:14.932Z,25.63
2019-02-19T13:13:45.368Z,25.03
2019-02-19T13:16:15.681Z,25.43
2019-02-19T13:18:45.996Z,27.03
2019-02-19T13:21:16.297Z,23.93
2019-02-19T13:23:46.688Z,38.93
2019-02-19T13:26:17.157Z,23.63
2019-02-19T13:28:47.763Z,22.60
2019-02-19T13:31:18.061Z,21.77
2019-02-19T13:33:48.661Z,18.47
2019-02-19T13:36:19.392Z,15.47
2019-02-19T13:38:50.046Z,18.77
2019-02-19T13:41:20.345Z,20.37
2019-02-19T13:43:50.564Z,17.80
2019-02-19T13:46:22.156Z,18.90
2019-02-19T13:48:52.489Z,22.70
2019-02-19T13:51:23.217Z,16.73
2019-02-19T13:53:55.345Z,17.53
2019-02-19T13:56:25.860Z,17.73
2019-02-19T13:58:56.041Z,16.23
2019-02-19T14:01:34.271Z,14.10
2019-02-19T14:04:08.676Z,14.60
2019-02-19T14:06:40.638Z,11.70
2019-02-19T14:09:10.959Z,13.60
2019-02-19T14:11:41.421Z,8.70
2019-02-19T14:14:19.421Z,13.10
2019-02-19T14:16:52.149Z,11.80
2019-02-19T14:19:24.173Z,13.73
2019-02-19T14:21:56.217Z,10.13
2019-02-19T14:24:30.782Z,10.50
2019-02-19T14:27:11.825Z,11.03
2019-02-19T14:29:59.555Z,8.77
2019-02-19T14:32:31.713Z,10.77
2019-02-19T14:35:20.625Z,12.43
2019-02-19T14:37:55.240Z,9.77
2019-02-19T14:40:30.224Z,11.07
2019-02-19T14:43:07.849Z,13.07
2019-02-19T14:45:40.054Z,10.90
2019-02-19T14:48:14.854Z,13.20
2019-02-19T14:50:46.848Z,11.67
2019-02-19T14:53:21.844Z,12.33
2019-02-19T14:55:59.912Z,11.23
2019-02-19T14:58:31.821Z,13.73
2019-02-19T15:01:03.956Z,12.70
2019-02-19T15:03:38.776Z,13.57
2019-02-19T15:06:17.011Z,12.70
2019-02-19T15:08:55.093Z,13.57
2019-02-19T15:11:27.060Z,9.00
2019-02-19T15:13:59.001Z,9.30
2019-02-19T15:16:30.864Z,8.53
2019-02-19T15:19:19.895Z,10.27
2019-02-19T15:22:06.456Z,11.63
2019-02-19T15:24:47.485Z,9.30
2019-02-19T15:27:19.525Z,11.80
2019-02-19T15:29:56.865Z,8.30
2019-02-19T15:32:44.273Z,12.07
2019-02-19T15:35:27.960Z,12.03
2019-02-19T15:37:59.809Z,11.10
2019-02-19T15:40:34.743Z,7.27
2019-02-19T15:43:06.920Z,8.30
2019-02-19T15:45:47.799Z,10.80
2019-02-19T15:48:28.765Z,15.43
2019-02-19T15:51:03.446Z,13.97
2019-02-19T15:53:44.672Z,7.73
2019-02-19T15:56:29.041Z,9.70
2019-02-19T15:59:16.300Z,7.67
2019-02-19T16:01:51.255Z,6.90
2019-02-19T16:04:26.331Z,7.20
2019-02-19T16:06:58.442Z,12.50
2019-02-19T16:09:30.506Z,9.33
2019-02-19T16:12:05.873Z,10.70
2019-02-19T16:14:43.693Z,9.67
2019-02-19T16:17:32.401Z,11.27
2019-02-19T16:20:10.325Z,8.67
2019-02-19T16:22:42.461Z,10.47
2019-02-19T16:25:26.729Z,10.00
2019-02-19T16:28:04.284Z,10.47
2019-02-19T16:30:52.512Z,10.37
2019-02-19T16:33:33.113Z,10.67
2019-02-19T16:36:05.125Z,12.03
2019-02-19T16:38:53.306Z,11.23
2019-02-19T16:41:40.624Z,12.40
2019-02-19T16:44:19.030Z,10.23
2019-02-19T16:46:51.710Z,7.63
2019-02-19T16:49:40.368Z,9.70
2019-02-19T16:52:18.461Z,9.40
2019-02-19T16:54:50.589Z,8.57
2019-02-19T16:57:25.417Z,8.70
2019-02-19T16:59:59.997Z,6.73
2019-02-19T17:02:34.669Z,7.03
2019-02-19T17:05:10.957Z,8.77
2019-02-19T17:07:52.001Z,8.83
2019-02-19T17:10:39.202Z,9.67
2019-02-19T17:13:28.034Z,9.13
2019-02-19T17:16:15.160Z,8.53
2019-02-19T17:19:24.980Z,7.87
2019-02-19T17:21:57.017Z,5.33
2019-02-19T17:24:45.093Z,11.43
2019-02-19T17:27:32.973Z,7.90
2019-02-19T17:30:06.566Z,7.87
2019-02-19T17:32:41.710Z,6.50
2019-02-19T17:35:19.933Z,3.53
2019-02-19T17:37:54.993Z,6.97
2019-02-19T17:40:30.027Z,5.13
2019-02-19T17:43:11.298Z,3.57
2019-02-19T17:45:55.231Z,9.57
2019-02-19T17:48:36.188Z,4.17
2019-02-19T17:51:08.180Z,4.47
2019-02-19T17:53:56.637Z,6.93
2019-02-19T17:56:28.677Z,3.90
2019-02-19T17:59:09.662Z,6.13
2019-02-19T18:01:53.326Z,6.13
2019-02-19T18:04:25.278Z,3.90
2019-02-19T18:06:57.389Z,2.73
2019-02-19T18:09:35.212Z,6.37
2019-02-19T18:12:13.229Z,4.57
2019-02-19T18:14:45.157Z,6.77
2019-02-19T18:17:17.225Z,3.60
2019-02-19T18:19:47.861Z,3.60
2019-02-19T18:22:18.304Z,6.40
2019-02-19T18:24:48.651Z,4.47
2019-02-19T18:27:19.034Z,2.97
2019-02-19T18:29:49.465Z,5.07
2019-02-19T18:32:20.025Z,6.27
2019-02-19T18:34:50.222Z,5.70
2019-02-19T18:37:20.522Z,2.63
2019-02-19T18:39:50.894Z,2.47
2019-02-19T18:42:21.388Z,3.33
2019-02-19T18:44:51.685Z,2.30
2019-02-19T18:47:21.958Z,2.80
2019-02-19T18:49:52.314Z,3.07
2019-02-19T18:52:22.446Z,4.40
2019-02-19T18:54:52.655Z,2.53
2019-02-19T18:57:22.946Z,2.43
2019-02-19T18:59:53.435Z,2.67
2019-02-19T19:02:23.993Z,3.13
2019-02-19T19:04:54.121Z,3.83
2019-02-19T19:07:24.533Z,2.53
2019-02-19T19:09:55.013Z,4.50
2019-02-19T19:12:25.638Z,3.77
2019-02-19T19:14:56.047Z,1.53
2019-02-19T19:17:26.321Z,4.13
2019-02-19T19:19:56.721Z,3.97
2019-02-19T19:22:26.981Z,3.60
2019-02-19T19:24:57.260Z,2.83
2019-02-19T19:27:27.545Z,3.77
2019-02-19T19:29:57.757Z,3.00
2019-02-19T19:32:28.047Z,3.00
2019-02-19T19:34:58.332Z,4.33
2019-02-19T19:37:28.738Z,4.50
2019-02-19T19:39:59.357Z,5.03
2019-02-19T19:42:29.648Z,5.27
2019-02-19T19:44:59.933Z,2.60
2019-02-19T19:47:30.561Z,4.00
2019-02-19T19:50:03.199Z,5.83
2019-02-19T19:52:33.042Z,6.53
2019-02-19T19:55:03.790Z,5.07
2019-02-19T19:57:34.174Z,4.10
2019-02-19T20:00:07.825Z,2.80
2019-02-19T20:02:39.323Z,2.93
2019-02-19T20:05:10.667Z,4.83
2019-02-19T20:07:41.057Z,6.20
2019-02-19T20:10:13.378Z,7.17
2019-02-19T20:12:43.974Z,4.17
2019-02-19T20:15:14.405Z,5.87
2019-02-19T20:17:44.687Z,5.77
2019-02-19T20:20:14.908Z,2.17
2019-02-19T20:22:45.411Z,5.77
2019-02-19T20:25:15.921Z,6.07
2019-02-19T20:27:46.283Z,6.60
2019-02-19T20:30:17.141Z,3.80
2019-02-19T20:32:47.479Z,6.97
2019-02-19T20:35:17.773Z,4.80
2019-02-19T20:37:53.694Z,8.40
2019-02-19T20:40:20.221Z,6.50
2019-02-19T20:42:50.637Z,6.13
2019-02-19T20:45:20.925Z,6.17
2019-02-19T20:47:51.055Z,6.73
2019-02-19T20:50:21.645Z,3.33
2019-02-19T20:52:52.063Z,5.53
2019-02-19T20:55:22.452Z,4.87
2019-02-19T20:57:52.999Z,6.27
2019-02-19T21:00:23.466Z,6.27
2019-02-19T21:02:53.877Z,8.53
2019-02-19T21:05:24.181Z,9.53
2019-02-19T21:07:54.408Z,3.70
2019-02-19T21:10:24.914Z,6.67
2019-02-19T21:12:55.545Z,7.23
2019-02-19T21:15:25.822Z,4.10
2019-02-19T21:17:56.315Z,5.03
2019-02-19T21:20:26.788Z,6.27
2019-02-19T21:22:57.316Z,8.40
2019-02-19T21:25:31.053Z,7.87
2019-02-19T21:27:59.710Z,6.53
2019-02-19T21:30:30.114Z,4.77
2019-02-19T21:33:00.597Z,4.10
2019-02-19T21:35:30.896Z,5.27
2019-02-19T21:38:01.532Z,9.13
2019-02-19T21:40:31.997Z,6.13
2019-02-19T21:43:02.396Z,5.87
2019-02-19T21:45:32.614Z,4.37
2019-02-19T21:48:03.102Z,7.60
2019-02-19T21:50:33.565Z,7.73
2019-02-19T21:53:03.909Z,5.37
2019-02-19T21:55:34.393Z,7.17
2019-02-19T21:58:04.832Z,7.67
2019-02-19T22:00:35.041Z,4.57
2019-02-19T22:03:05.325Z,3.37
2019-02-19T22:05:35.680Z,7.57
2019-02-19T22:08:06.165Z,4.90
2019-02-19T22:10:36.569Z,4.93
2019-02-19T22:13:06.858Z,9.47
2019-02-19T22:15:37.324Z,4.53
2019-02-19T22:18:07.893Z,4.63
2019-02-19T22:20:42.917Z,6.27
2019-02-19T22:23:13.529Z,10.53
2019-02-19T22:25:43.833Z,3.73
2019-02-19T22:28:14.043Z,7.63
2019-02-19T22:30:44.324Z,3.77
2019-02-19T22:33:14.758Z,6.97
2019-02-19T22:35:45.044Z,9.30
2019-02-19T22:38:16.137Z,9.47
2019-02-19T22:40:54.820Z,6.57
2019-02-19T22:43:18.329Z,5.60
2019-02-19T22:45:48.733Z,5.30
2019-02-19T22:48:19.192Z,6.50
2019-02-19T22:50:49.557Z,6.83
2019-02-19T22:53:39.437Z,3.37
2019-02-19T22:56:11.473Z,8.00
2019-02-19T22:58:41.789Z,4.60
2019-02-19T23:01:21.773Z,6.97
2019-02-19T23:03:52.205Z,2.23
2019-02-19T23:06:22.404Z,4.03
2019-02-19T23:08:52.657Z,4.20
2019-02-19T23:11:22.928Z,7.50
2019-02-19T23:13:53.486Z,4.20
2019-02-19T23:16:23.849Z,3.40
2019-02-19T23:18:54.333Z,6.70
2019-02-19T23:21:24.621Z,9.03
2019-02-19T23:23:55.037Z,5.30
2019-02-19T23:26:25.525Z,7.50
2019-02-19T23:28:55.836Z,5.33
2019-02-19T23:31:26.465Z,6.07
2019-02-19T23:33:56.769Z,6.73
2019-02-19T23:36:34.717Z,6.17
2019-02-19T23:39:05.816Z,5.77
2019-02-19T23:41:36.026Z,6.07
2019-02-19T23:44:06.474Z,5.10
2019-02-19T23:46:37.028Z,4.60
2019-02-19T23:49:07.303Z,8.30
2019-02-19T23:51:37.713Z,4.57
2019-02-19T23:54:08.278Z,7.30
2019-02-19T23:56:38.661Z,5.63
2019-02-19T23:59:08.860Z,6.70
